2NC6 weather

Flying M Airport
Lexington, North Carolina, United States

Public forecast

Using degrees Fahrenheit for public forecast. Weather courtesy of forecast.io.

METAR (pilot weather report)

Closest report is Davidson County Airport, 4.6 nm (8.6 km) ESE. Retrieved 2019/07/18 04:35 UTC (0 seconds ago):

KEXX 180435Z AUTO 24003KT 10SM CLR 25/21 A3000 RMK AO2 T02500209

TAF (pilot weather forecast)

Forecast is more than 12 hours old.

Closest forecast is Smith Reynolds Airport, 21.8 nm (40.3 km) NNE. Retrieved 2019/07/17 00:36 UTC (1 day ago):

TAF KINT 172334Z 1800/1824 25006KT P6SM BKN180 FM180300 22004KT P6SM SCT130 FM181800 26006KT P6SM SCT060